sensor_id;sensor_type;location;lat;lon;timestamp;temperature;humidity
21625;DHT22;10974;51.034;3.744;2022-07-29T00:01:35;19.90;1.00
21625;DHT22;10974;51.034;3.744;2022-07-29T00:04:01;19.90;1.00
21625;DHT22;10974;51.034;3.744;2022-07-29T00:06:26;19.90;1.00
21625;DHT22;10974;51.034;3.744;2022-07-29T00:08:52;19.80;1.00
21625;DHT22;10974;51.034;3.744;2022-07-29T00:11:17;19.90;1.00
21625;DHT22;10974;51.034;3.744;2022-07-29T00:13:43;19.90;1.00
21625;DHT22;10974;51.034;3.744;2022-07-29T00:16:09;19.80;1.00
21625;DHT22;10974;51.034;3.744;2022-07-29T00:18:35;19.80;1.00
21625;DHT22;10974;51.034;3.744;2022-07-29T00:21:00;19.80;1.00
21625;DHT22;10974;51.034;3.744;2022-07-29T00:23:26;19.90;1.00
21625;DHT22;10974;51.034;3.744;2022-07-29T00:25:52;19.70;1.00
21625;DHT22;10974;51.034;3.744;2022-07-29T00:28:17;19.70;1.00
21625;DHT22;10974;51.034;3.744;2022-07-29T00:30:43;19.80;1.00
21625;DHT22;10974;51.034;3.744;2022-07-29T00:33:09;19.80;1.00
21625;DHT22;10974;51.034;3.744;2022-07-29T00:35:35;19.70;1.00
21625;DHT22;10974;51.034;3.744;2022-07-29T00:38:14;19.70;1.00
21625;DHT22;10974;51.034;3.744;2022-07-29T00:40:41;19.70;1.00
21625;DHT22;10974;51.034;3.744;2022-07-29T00:43:06;19.70;1.00
21625;DHT22;10974;51.034;3.744;2022-07-29T00:45:32;19.60;35.70
21625;DHT22;10974;51.034;3.744;2022-07-29T00:47:58;19.60;97.90
21625;DHT22;10974;51.034;3.744;2022-07-29T00:50:24;19.70;99.90
21625;DHT22;10974;51.034;3.744;2022-07-29T00:52:50;19.60;99.90
21625;DHT22;10974;51.034;3.744;2022-07-29T00:55:17;19.50;99.90
21625;DHT22;10974;51.034;3.744;2022-07-29T00:57:44;19.50;99.90
21625;DHT22;10974;51.034;3.744;2022-07-29T01:00:16;19.40;99.90
21625;DHT22;10974;51.034;3.744;2022-07-29T01:02:43;19.20;1.00
21625;DHT22;10974;51.034;3.744;2022-07-29T01:05:10;19.20;1.00
21625;DHT22;10974;51.034;3.744;2022-07-29T01:07:37;19.20;1.00
21625;DHT22;10974;51.034;3.744;2022-07-29T01:10:04;19.20;1.00
21625;DHT22;10974;51.034;3.744;2022-07-29T01:12:32;19.10;56.90
21625;DHT22;10974;51.034;3.744;2022-07-29T01:15:00;19.10;99.90
21625;DHT22;10974;51.034;3.744;2022-07-29T01:28:49;19.00;1.00
21625;DHT22;10974;51.034;3.744;2022-07-29T01:31:22;18.90;1.00
21625;DHT22;10974;51.034;3.744;2022-07-29T01:33:55;18.90;1.00
21625;DHT22;10974;51.034;3.744;2022-07-29T01:36:36;18.90;1.00
21625;DHT22;10974;51.034;3.744;2022-07-29T01:39:10;18.80;1.00
21625;DHT22;10974;51.034;3.744;2022-07-29T01:41:40;18.80;1.00
21625;DHT22;10974;51.034;3.744;2022-07-29T01:44:12;18.80;95.60
21625;DHT22;10974;51.034;3.744;2022-07-29T01:46:46;18.70;99.90
21625;DHT22;10974;51.034;3.744;2022-07-29T01:49:18;18.70;99.90
21625;DHT22;10974;51.034;3.744;2022-07-29T01:51:58;18.70;99.90
21625;DHT22;10974;51.034;3.744;2022-07-29T01:54:41;18.70;1.00
21625;DHT22;10974;51.034;3.744;2022-07-29T01:57:15;18.70;1.00
21625;DHT22;10974;51.034;3.744;2022-07-29T01:59:46;18.60;1.00
21625;DHT22;10974;51.034;3.744;2022-07-29T02:02:14;18.60;99.90
21625;DHT22;10974;51.034;3.744;2022-07-29T02:04:43;18.60;1.00
21625;DHT22;10974;51.034;3.744;2022-07-29T02:07:12;18.60;95.40
21625;DHT22;10974;51.034;3.744;2022-07-29T02:09:40;18.60;99.90
21625;DHT22;10974;51.034;3.744;2022-07-29T02:12:07;18.50;99.90
21625;DHT22;10974;51.034;3.744;2022-07-29T02:14:39;18.50;99.90
21625;DHT22;10974;51.034;3.744;2022-07-29T02:17:06;18.50;99.90
21625;DHT22;10974;51.034;3.744;2022-07-29T02:19:33;18.40;1.00
21625;DHT22;10974;51.034;3.744;2022-07-29T02:22:00;18.40;99.90
21625;DHT22;10974;51.034;3.744;2022-07-29T02:24:28;18.40;96.40
21625;DHT22;10974;51.034;3.744;2022-07-29T02:26:56;18.40;1.00
21625;DHT22;10974;51.034;3.744;2022-07-29T02:29:26;18.30;34.50
21625;DHT22;10974;51.034;3.744;2022-07-29T02:31:52;18.30;99.90
21625;DHT22;10974;51.034;3.744;2022-07-29T02:34:20;18.40;27.70
21625;DHT22;10974;51.034;3.744;2022-07-29T02:36:47;18.30;1.00
21625;DHT22;10974;51.034;3.744;2022-07-29T02:39:15;18.30;99.90
21625;DHT22;10974;51.034;3.744;2022-07-29T02:41:42;18.20;99.90
21625;DHT22;10974;51.034;3.744;2022-07-29T02:44:18;18.30;99.90
21625;DHT22;10974;51.034;3.744;2022-07-29T02:52:01;18.20;99.90
21625;DHT22;10974;51.034;3.744;2022-07-29T02:54:44;18.10;1.00
21625;DHT22;10974;51.034;3.744;2022-07-29T02:59:59;18.10;1.00
21625;DHT22;10974;51.034;3.744;2022-07-29T03:02:28;18.00;1.00
21625;DHT22;10974;51.034;3.744;2022-07-29T03:04:58;18.10;1.00
21625;DHT22;10974;51.034;3.744;2022-07-29T03:07:25;18.00;1.00
21625;DHT22;10974;51.034;3.744;2022-07-29T03:09:51;18.00;99.90
21625;DHT22;10974;51.034;3.744;2022-07-29T03:12:18;18.00;99.90
21625;DHT22;10974;51.034;3.744;2022-07-29T03:14:44;18.00;1.00
21625;DHT22;10974;51.034;3.744;2022-07-29T03:17:11;17.90;1.00
21625;DHT22;10974;51.034;3.744;2022-07-29T03:19:38;18.00;1.00
21625;DHT22;10974;51.034;3.744;2022-07-29T03:22:05;18.00;1.00
21625;DHT22;10974;51.034;3.744;2022-07-29T03:24:33;18.00;1.00
21625;DHT22;10974;51.034;3.744;2022-07-29T03:27:00;17.90;1.00
21625;DHT22;10974;51.034;3.744;2022-07-29T03:29:26;17.90;99.90
21625;DHT22;10974;51.034;3.744;2022-07-29T03:31:52;17.80;99.90
21625;DHT22;10974;51.034;3.744;2022-07-29T03:34:18;17.80;1.00
21625;DHT22;10974;51.034;3.744;2022-07-29T03:36:44;17.90;1.00
21625;DHT22;10974;51.034;3.744;2022-07-29T03:39:10;17.80;1.00
21625;DHT22;10974;51.034;3.744;2022-07-29T03:41:38;17.80;1.00
21625;DHT22;10974;51.034;3.744;2022-07-29T03:44:05;17.80;35.20
21625;DHT22;10974;51.034;3.744;2022-07-29T03:46:33;17.80;1.00
21625;DHT22;10974;51.034;3.744;2022-07-29T03:49:01;17.80;1.00
21625;DHT22;10974;51.034;3.744;2022-07-29T03:51:28;17.80;1.00
21625;DHT22;10974;51.034;3.744;2022-07-29T03:53:54;17.80;1.00
21625;DHT22;10974;51.034;3.744;2022-07-29T03:56:23;17.70;1.00
21625;DHT22;10974;51.034;3.744;2022-07-29T03:58:51;17.70;61.50
21625;DHT22;10974;51.034;3.744;2022-07-29T04:01:19;17.70;99.90
21625;DHT22;10974;51.034;3.744;2022-07-29T04:03:45;17.70;99.90
21625;DHT22;10974;51.034;3.744;2022-07-29T04:06:12;17.70;1.00
21625;DHT22;10974;51.034;3.744;2022-07-29T04:08:38;17.60;1.00
21625;DHT22;10974;51.034;3.744;2022-07-29T04:11:04;17.60;1.00
21625;DHT22;10974;51.034;3.744;2022-07-29T04:13:31;17.60;99.90
21625;DHT22;10974;51.034;3.744;2022-07-29T04:15:57;17.60;99.90
21625;DHT22;10974;51.034;3.744;2022-07-29T04:18:23;17.60;99.90
21625;DHT22;10974;51.034;3.744;2022-07-29T04:20:48;17.60;99.90
21625;DHT22;10974;51.034;3.744;2022-07-29T04:23:14;17.60;99.90
21625;DHT22;10974;51.034;3.744;2022-07-29T04:25:40;17.60;1.00
21625;DHT22;10974;51.034;3.744;2022-07-29T04:28:07;17.50;1.00
21625;DHT22;10974;51.034;3.744;2022-07-29T04:30:34;17.50;1.00
21625;DHT22;10974;51.034;3.744;2022-07-29T04:33:01;17.60;99.90
21625;DHT22;10974;51.034;3.744;2022-07-29T04:35:28;17.60;1.00
21625;DHT22;10974;51.034;3.744;2022-07-29T04:37:54;17.50;1.00
21625;DHT22;10974;51.034;3.744;2022-07-29T04:40:20;17.60;99.90
21625;DHT22;10974;51.034;3.744;2022-07-29T04:42:46;17.60;1.00
21625;DHT22;10974;51.034;3.744;2022-07-29T04:45:12;17.60;1.00
21625;DHT22;10974;51.034;3.744;2022-07-29T04:47:38;17.50;99.90
21625;DHT22;10974;51.034;3.744;2022-07-29T04:50:04;17.60;99.90
21625;DHT22;10974;51.034;3.744;2022-07-29T04:52:31;17.60;1.00
21625;DHT22;10974;51.034;3.744;2022-07-29T04:54:57;17.60;1.00
21625;DHT22;10974;51.034;3.744;2022-07-29T04:57:22;17.60;16.80
21625;DHT22;10974;51.034;3.744;2022-07-29T04:59:48;17.70;1.00
21625;DHT22;10974;51.034;3.744;2022-07-29T05:02:14;17.70;1.00
21625;DHT22;10974;51.034;3.744;2022-07-29T05:04:40;17.70;1.00
21625;DHT22;10974;51.034;3.744;2022-07-29T05:07:05;17.70;99.90
21625;DHT22;10974;51.034;3.744;2022-07-29T05:09:31;17.70;1.00
21625;DHT22;10974;51.034;3.744;2022-07-29T05:11:58;17.70;1.00
21625;DHT22;10974;51.034;3.744;2022-07-29T05:14:23;17.80;1.00
21625;DHT22;10974;51.034;3.744;2022-07-29T05:16:49;17.70;34.00
21625;DHT22;10974;51.034;3.744;2022-07-29T05:19:17;17.70;99.90
21625;DHT22;10974;51.034;3.744;2022-07-29T05:21:44;17.70;1.00
21625;DHT22;10974;51.034;3.744;2022-07-29T05:24:11;17.70;1.00
21625;DHT22;10974;51.034;3.744;2022-07-29T05:26:36;17.70;99.90
21625;DHT22;10974;51.034;3.744;2022-07-29T05:29:02;17.80;1.00
21625;DHT22;10974;51.034;3.744;2022-07-29T05:31:28;17.80;99.90
21625;DHT22;10974;51.034;3.744;2022-07-29T05:33:54;17.70;99.90
21625;DHT22;10974;51.034;3.744;2022-07-29T05:36:20;17.90;1.00
21625;DHT22;10974;51.034;3.744;2022-07-29T05:38:45;18.00;1.00
21625;DHT22;10974;51.034;3.744;2022-07-29T05:41:11;18.00;99.90
21625;DHT22;10974;51.034;3.744;2022-07-29T05:43:37;18.10;1.00
21625;DHT22;10974;51.034;3.744;2022-07-29T05:46:03;18.20;1.00
21625;DHT22;10974;51.034;3.744;2022-07-29T05:48:28;18.20;1.00
21625;DHT22;10974;51.034;3.744;2022-07-29T05:50:54;18.30;99.90
21625;DHT22;10974;51.034;3.744;2022-07-29T05:53:20;18.40;99.90
21625;DHT22;10974;51.034;3.744;2022-07-29T05:55:47;18.40;99.90
21625;DHT22;10974;51.034;3.744;2022-07-29T05:58:12;18.40;1.00
21625;DHT22;10974;51.034;3.744;2022-07-29T06:00:38;18.50;92.90
21625;DHT22;10974;51.034;3.744;2022-07-29T06:03:04;18.60;1.00
21625;DHT22;10974;51.034;3.744;2022-07-29T06:05:29;18.60;99.90
21625;DHT22;10974;51.034;3.744;2022-07-29T06:07:55;18.60;1.00
21625;DHT22;10974;51.034;3.744;2022-07-29T06:10:21;18.60;99.90
21625;DHT22;10974;51.034;3.744;2022-07-29T06:12:46;18.60;99.90
21625;DHT22;10974;51.034;3.744;2022-07-29T06:15:12;18.70;99.90
21625;DHT22;10974;51.034;3.744;2022-07-29T06:17:38;18.70;1.00
21625;DHT22;10974;51.034;3.744;2022-07-29T06:20:04;18.70;1.00
21625;DHT22;10974;51.034;3.744;2022-07-29T06:22:30;18.80;99.90
21625;DHT22;10974;51.034;3.744;2022-07-29T06:24:55;18.80;99.90
21625;DHT22;10974;51.034;3.744;2022-07-29T06:27:21;18.90;99.90
21625;DHT22;10974;51.034;3.744;2022-07-29T06:29:47;18.90;99.90
21625;DHT22;10974;51.034;3.744;2022-07-29T06:32:13;18.90;1.00
21625;DHT22;10974;51.034;3.744;2022-07-29T06:34:38;19.00;99.90
21625;DHT22;10974;51.034;3.744;2022-07-29T06:37:08;19.00;99.90
21625;DHT22;10974;51.034;3.744;2022-07-29T06:39:35;19.20;1.00
21625;DHT22;10974;51.034;3.744;2022-07-29T06:42:02;19.20;1.00
21625;DHT22;10974;51.034;3.744;2022-07-29T06:44:28;19.10;99.90
21625;DHT22;10974;51.034;3.744;2022-07-29T06:46:53;19.20;1.00
21625;DHT22;10974;51.034;3.744;2022-07-29T06:49:20;19.30;99.90
21625;DHT22;10974;51.034;3.744;2022-07-29T06:51:45;19.30;1.00
21625;DHT22;10974;51.034;3.744;2022-07-29T06:54:11;19.30;1.00
21625;DHT22;10974;51.034;3.744;2022-07-29T06:56:37;19.40;99.90
21625;DHT22;10974;51.034;3.744;2022-07-29T06:59:04;19.40;1.00
21625;DHT22;10974;51.034;3.744;2022-07-29T07:01:30;19.40;99.90
21625;DHT22;10974;51.034;3.744;2022-07-29T07:03:56;19.50;99.90
21625;DHT22;10974;51.034;3.744;2022-07-29T07:06:22;19.70;1.00
21625;DHT22;10974;51.034;3.744;2022-07-29T07:08:47;19.80;1.00
21625;DHT22;10974;51.034;3.744;2022-07-29T07:11:13;19.80;1.00
21625;DHT22;10974;51.034;3.744;2022-07-29T07:13:38;19.90;1.00
21625;DHT22;10974;51.034;3.744;2022-07-29T07:16:04;20.00;99.90
21625;DHT22;10974;51.034;3.744;2022-07-29T07:18:30;20.00;99.90
21625;DHT22;10974;51.034;3.744;2022-07-29T07:20:57;20.00;99.90
21625;DHT22;10974;51.034;3.744;2022-07-29T07:23:23;20.00;1.00
21625;DHT22;10974;51.034;3.744;2022-07-29T07:25:48;20.10;1.00
21625;DHT22;10974;51.034;3.744;2022-07-29T07:28:14;20.00;1.00
21625;DHT22;10974;51.034;3.744;2022-07-29T07:30:40;20.20;1.00
21625;DHT22;10974;51.034;3.744;2022-07-29T07:33:06;20.10;1.00
21625;DHT22;10974;51.034;3.744;2022-07-29T07:35:31;20.30;1.00
21625;DHT22;10974;51.034;3.744;2022-07-29T07:37:57;20.40;99.90
21625;DHT22;10974;51.034;3.744;2022-07-29T07:40:23;20.40;99.90
21625;DHT22;10974;51.034;3.744;2022-07-29T07:42:49;20.40;99.90
21625;DHT22;10974;51.034;3.744;2022-07-29T07:45:14;20.70;99.90
21625;DHT22;10974;51.034;3.744;2022-07-29T07:47:41;20.70;1.00
21625;DHT22;10974;51.034;3.744;2022-07-29T07:50:08;20.70;1.00
21625;DHT22;10974;51.034;3.744;2022-07-29T07:52:49;20.70;1.00
21625;DHT22;10974;51.034;3.744;2022-07-29T07:55:15;21.10;1.00
21625;DHT22;10974;51.034;3.744;2022-07-29T07:57:41;21.00;99.90
21625;DHT22;10974;51.034;3.744;2022-07-29T08:00:07;21.00;1.00
21625;DHT22;10974;51.034;3.744;2022-07-29T08:02:33;21.10;99.90
21625;DHT22;10974;51.034;3.744;2022-07-29T08:04:58;21.30;99.90
21625;DHT22;10974;51.034;3.744;2022-07-29T08:07:25;21.30;99.90
21625;DHT22;10974;51.034;3.744;2022-07-29T08:09:50;21.20;99.90
21625;DHT22;10974;51.034;3.744;2022-07-29T08:12:16;21.30;99.90
21625;DHT22;10974;51.034;3.744;2022-07-29T08:14:42;21.60;99.90
21625;DHT22;10974;51.034;3.744;2022-07-29T08:17:07;21.40;1.00
21625;DHT22;10974;51.034;3.744;2022-07-29T08:19:33;21.50;1.00
21625;DHT22;10974;51.034;3.744;2022-07-29T08:21:59;21.70;1.00
21625;DHT22;10974;51.034;3.744;2022-07-29T08:24:25;21.80;1.00
21625;DHT22;10974;51.034;3.744;2022-07-29T08:27:12;22.00;1.00
21625;DHT22;10974;51.034;3.744;2022-07-29T08:29:38;22.10;99.90
21625;DHT22;10974;51.034;3.744;2022-07-29T08:32:05;22.10;1.00
21625;DHT22;10974;51.034;3.744;2022-07-29T08:34:30;22.30;1.00
21625;DHT22;10974;51.034;3.744;2022-07-29T08:36:57;22.40;1.00
21625;DHT22;10974;51.034;3.744;2022-07-29T08:39:24;22.60;17.90
21625;DHT22;10974;51.034;3.744;2022-07-29T08:41:50;22.70;1.00
21625;DHT22;10974;51.034;3.744;2022-07-29T08:44:20;22.90;1.00
21625;DHT22;10974;51.034;3.744;2022-07-29T08:46:50;22.70;1.00
21625;DHT22;10974;51.034;3.744;2022-07-29T08:49:17;22.80;1.00
21625;DHT22;10974;51.034;3.744;2022-07-29T08:51:43;23.00;99.90
21625;DHT22;10974;51.034;3.744;2022-07-29T08:54:09;23.40;1.00
21625;DHT22;10974;51.034;3.744;2022-07-29T08:56:36;23.60;99.90
21625;DHT22;10974;51.034;3.744;2022-07-29T08:59:04;23.50;99.90
21625;DHT22;10974;51.034;3.744;2022-07-29T09:01:32;23.70;99.90
21625;DHT22;10974;51.034;3.744;2022-07-29T09:03:59;23.70;99.90
21625;DHT22;10974;51.034;3.744;2022-07-29T09:06:31;23.80;99.90
21625;DHT22;10974;51.034;3.744;2022-07-29T09:08:59;24.10;99.90
21625;DHT22;10974;51.034;3.744;2022-07-29T09:11:25;23.90;8.60
21625;DHT22;10974;51.034;3.744;2022-07-29T09:13:51;23.90;4.40
21625;DHT22;10974;51.034;3.744;2022-07-29T09:16:17;23.80;99.90
21625;DHT22;10974;51.034;3.744;2022-07-29T09:18:44;24.00;1.00
21625;DHT22;10974;51.034;3.744;2022-07-29T09:21:15;24.10;1.00
21625;DHT22;10974;51.034;3.744;2022-07-29T09:24:01;24.20;1.00
21625;DHT22;10974;51.034;3.744;2022-07-29T09:26:31;24.30;1.00
21625;DHT22;10974;51.034;3.744;2022-07-29T09:28:57;24.40;1.00
21625;DHT22;10974;51.034;3.744;2022-07-29T09:31:35;24.30;1.00
21625;DHT22;10974;51.034;3.744;2022-07-29T09:34:01;24.70;1.00
21625;DHT22;10974;51.034;3.744;2022-07-29T09:36:27;24.50;1.00
21625;DHT22;10974;51.034;3.744;2022-07-29T09:38:59;24.60;1.00
21625;DHT22;10974;51.034;3.744;2022-07-29T09:41:27;24.60;1.00
21625;DHT22;10974;51.034;3.744;2022-07-29T09:43:56;24.70;1.00
21625;DHT22;10974;51.034;3.744;2022-07-29T09:46:23;24.70;1.00
21625;DHT22;10974;51.034;3.744;2022-07-29T09:49:09;25.10;1.00
21625;DHT22;10974;51.034;3.744;2022-07-29T09:51:36;24.80;1.00
21625;DHT22;10974;51.034;3.744;2022-07-29T09:54:05;25.00;1.00
21625;DHT22;10974;51.034;3.744;2022-07-29T09:56:46;25.20;1.00
21625;DHT22;10974;51.034;3.744;2022-07-29T09:59:13;25.50;1.00
21625;DHT22;10974;51.034;3.744;2022-07-29T10:01:39;25.30;1.00
21625;DHT22;10974;51.034;3.744;2022-07-29T10:04:05;25.10;1.00
21625;DHT22;10974;51.034;3.744;2022-07-29T10:06:31;25.00;1.00
21625;DHT22;10974;51.034;3.744;2022-07-29T10:09:16;24.90;1.00
21625;DHT22;10974;51.034;3.744;2022-07-29T10:11:43;24.90;1.00
21625;DHT22;10974;51.034;3.744;2022-07-29T10:14:27;24.90;1.00
21625;DHT22;10974;51.034;3.744;2022-07-29T10:16:53;24.90;1.00
21625;DHT22;10974;51.034;3.744;2022-07-29T10:19:20;24.90;1.00
21625;DHT22;10974;51.034;3.744;2022-07-29T10:21:46;24.90;1.00
21625;DHT22;10974;51.034;3.744;2022-07-29T10:24:12;24.90;1.00
21625;DHT22;10974;51.034;3.744;2022-07-29T10:26:38;24.90;1.00
21625;DHT22;10974;51.034;3.744;2022-07-29T10:29:06;24.90;1.00
21625;DHT22;10974;51.034;3.744;2022-07-29T10:31:48;25.00;1.00
21625;DHT22;10974;51.034;3.744;2022-07-29T10:34:36;25.00;1.00
21625;DHT22;10974;51.034;3.744;2022-07-29T10:38:04;25.00;1.00
21625;DHT22;10974;51.034;3.744;2022-07-29T10:43:28;25.10;1.00
21625;DHT22;10974;51.034;3.744;2022-07-29T10:45:57;25.00;1.00
21625;DHT22;10974;51.034;3.744;2022-07-29T10:48:24;25.10;1.00
21625;DHT22;10974;51.034;3.744;2022-07-29T10:50:57;25.10;1.00
21625;DHT22;10974;51.034;3.744;2022-07-29T10:53:53;25.10;1.00
21625;DHT22;10974;51.034;3.744;2022-07-29T10:56:29;25.10;1.00
21625;DHT22;10974;51.034;3.744;2022-07-29T11:01:45;25.20;1.00
21625;DHT22;10974;51.034;3.744;2022-07-29T11:04:11;25.20;1.00
21625;DHT22;10974;51.034;3.744;2022-07-29T11:09:28;25.30;1.00
21625;DHT22;10974;51.034;3.744;2022-07-29T11:11:56;25.30;1.00
21625;DHT22;10974;51.034;3.744;2022-07-29T11:17:19;25.30;1.00
21625;DHT22;10974;51.034;3.744;2022-07-29T11:19:44;25.30;1.00
21625;DHT22;10974;51.034;3.744;2022-07-29T11:22:11;25.30;1.00
21625;DHT22;10974;51.034;3.744;2022-07-29T11:24:37;25.30;1.00
21625;DHT22;10974;51.034;3.744;2022-07-29T11:27:14;25.30;1.00
21625;DHT22;10974;51.034;3.744;2022-07-29T11:29:48;25.30;1.00
21625;DHT22;10974;51.034;3.744;2022-07-29T11:32:16;25.30;1.00
21625;DHT22;10974;51.034;3.744;2022-07-29T11:34:45;25.30;1.00
21625;DHT22;10974;51.034;3.744;2022-07-29T11:45:05;25.30;1.00
21625;DHT22;10974;51.034;3.744;2022-07-29T11:50:01;25.30;1.00
21625;DHT22;10974;51.034;3.744;2022-07-29T11:52:43;25.30;1.00
21625;DHT22;10974;51.034;3.744;2022-07-29T11:55:12;25.30;1.00
21625;DHT22;10974;51.034;3.744;2022-07-29T11:57:46;25.40;1.00
21625;DHT22;10974;51.034;3.744;2022-07-29T12:00:25;25.40;1.00
21625;DHT22;10974;51.034;3.744;2022-07-29T12:02:51;25.40;1.00
21625;DHT22;10974;51.034;3.744;2022-07-29T12:05:17;25.50;1.00
21625;DHT22;10974;51.034;3.744;2022-07-29T12:07:43;25.60;1.00
21625;DHT22;10974;51.034;3.744;2022-07-29T12:10:09;25.60;1.00
21625;DHT22;10974;51.034;3.744;2022-07-29T12:12:35;25.60;1.00
21625;DHT22;10974;51.034;3.744;2022-07-29T12:15:15;25.60;1.00
21625;DHT22;10974;51.034;3.744;2022-07-29T12:17:43;25.60;1.00
21625;DHT22;10974;51.034;3.744;2022-07-29T12:20:09;25.60;1.00
21625;DHT22;10974;51.034;3.744;2022-07-29T12:22:40;25.60;1.00
21625;DHT22;10974;51.034;3.744;2022-07-29T12:25:13;25.60;1.00
21625;DHT22;10974;51.034;3.744;2022-07-29T12:27:41;25.70;1.00
21625;DHT22;10974;51.034;3.744;2022-07-29T12:30:11;25.70;1.00
21625;DHT22;10974;51.034;3.744;2022-07-29T12:32:39;25.70;1.00
21625;DHT22;10974;51.034;3.744;2022-07-29T12:35:10;25.70;1.00
21625;DHT22;10974;51.034;3.744;2022-07-29T12:37:38;25.80;1.00
21625;DHT22;10974;51.034;3.744;2022-07-29T12:40:05;25.80;1.00
21625;DHT22;10974;51.034;3.744;2022-07-29T12:42:31;25.80;1.00
21625;DHT22;10974;51.034;3.744;2022-07-29T12:44:57;25.80;1.00
21625;DHT22;10974;51.034;3.744;2022-07-29T12:47:23;25.80;1.00
21625;DHT22;10974;51.034;3.744;2022-07-29T12:49:50;25.80;1.00
21625;DHT22;10974;51.034;3.744;2022-07-29T12:52:33;25.80;1.00
21625;DHT22;10974;51.034;3.744;2022-07-29T12:54:59;25.80;1.00
21625;DHT22;10974;51.034;3.744;2022-07-29T12:57:26;25.80;1.00
21625;DHT22;10974;51.034;3.744;2022-07-29T13:00:07;25.80;1.00
21625;DHT22;10974;51.034;3.744;2022-07-29T13:02:34;25.80;1.00
21625;DHT22;10974;51.034;3.744;2022-07-29T13:05:00;25.90;1.00
21625;DHT22;10974;51.034;3.744;2022-07-29T13:07:28;25.90;1.00
21625;DHT22;10974;51.034;3.744;2022-07-29T13:10:19;25.90;1.00
21625;DHT22;10974;51.034;3.744;2022-07-29T13:13:06;25.80;1.00
21625;DHT22;10974;51.034;3.744;2022-07-29T13:15:33;25.90;1.00
21625;DHT22;10974;51.034;3.744;2022-07-29T13:17:59;25.90;1.00
21625;DHT22;10974;51.034;3.744;2022-07-29T13:20:27;25.90;1.00
21625;DHT22;10974;51.034;3.744;2022-07-29T13:22:58;25.90;1.00
21625;DHT22;10974;51.034;3.744;2022-07-29T13:25:26;25.90;1.00
21625;DHT22;10974;51.034;3.744;2022-07-29T13:27:52;25.90;1.00
21625;DHT22;10974;51.034;3.744;2022-07-29T13:30:20;25.90;1.00
21625;DHT22;10974;51.034;3.744;2022-07-29T13:32:45;25.90;1.00
21625;DHT22;10974;51.034;3.744;2022-07-29T13:35:12;25.90;1.00
21625;DHT22;10974;51.034;3.744;2022-07-29T13:37:38;25.90;1.00
21625;DHT22;10974;51.034;3.744;2022-07-29T13:40:05;25.90;1.00
21625;DHT22;10974;51.034;3.744;2022-07-29T13:42:32;25.90;1.00
21625;DHT22;10974;51.034;3.744;2022-07-29T13:44:58;25.90;1.00
21625;DHT22;10974;51.034;3.744;2022-07-29T13:47:24;25.90;1.00
21625;DHT22;10974;51.034;3.744;2022-07-29T13:49:50;25.90;1.00
21625;DHT22;10974;51.034;3.744;2022-07-29T13:52:16;25.90;1.00
21625;DHT22;10974;51.034;3.744;2022-07-29T13:54:42;25.90;1.00
21625;DHT22;10974;51.034;3.744;2022-07-29T13:57:09;25.90;1.00
21625;DHT22;10974;51.034;3.744;2022-07-29T13:59:36;25.90;1.00
21625;DHT22;10974;51.034;3.744;2022-07-29T14:02:02;25.90;1.00
21625;DHT22;10974;51.034;3.744;2022-07-29T14:04:27;25.90;1.00
21625;DHT22;10974;51.034;3.744;2022-07-29T14:06:53;25.90;1.00
21625;DHT22;10974;51.034;3.744;2022-07-29T14:09:19;25.90;1.00
21625;DHT22;10974;51.034;3.744;2022-07-29T14:11:45;25.90;1.00
21625;DHT22;10974;51.034;3.744;2022-07-29T14:14:11;25.90;1.00
21625;DHT22;10974;51.034;3.744;2022-07-29T14:16:37;25.90;1.00
21625;DHT22;10974;51.034;3.744;2022-07-29T14:19:03;25.90;1.00
21625;DHT22;10974;51.034;3.744;2022-07-29T14:21:29;25.90;1.00
21625;DHT22;10974;51.034;3.744;2022-07-29T14:23:54;25.90;1.00
21625;DHT22;10974;51.034;3.744;2022-07-29T14:26:21;25.90;1.00
21625;DHT22;10974;51.034;3.744;2022-07-29T14:28:48;25.90;1.00
21625;DHT22;10974;51.034;3.744;2022-07-29T14:31:14;25.90;1.00
21625;DHT22;10974;51.034;3.744;2022-07-29T14:33:40;25.90;1.00
21625;DHT22;10974;51.034;3.744;2022-07-29T14:36:06;25.90;1.00
21625;DHT22;10974;51.034;3.744;2022-07-29T14:38:32;26.00;1.00
21625;DHT22;10974;51.034;3.744;2022-07-29T14:40:58;26.00;1.00
21625;DHT22;10974;51.034;3.744;2022-07-29T14:43:23;26.00;1.00
21625;DHT22;10974;51.034;3.744;2022-07-29T14:45:49;26.00;1.00
21625;DHT22;10974;51.034;3.744;2022-07-29T14:48:15;26.00;1.00
21625;DHT22;10974;51.034;3.744;2022-07-29T14:50:41;26.10;1.00
21625;DHT22;10974;51.034;3.744;2022-07-29T14:53:06;26.10;1.00
21625;DHT22;10974;51.034;3.744;2022-07-29T14:55:32;26.10;1.00
21625;DHT22;10974;51.034;3.744;2022-07-29T14:57:58;26.10;1.00
21625;DHT22;10974;51.034;3.744;2022-07-29T15:00:25;26.10;1.00
21625;DHT22;10974;51.034;3.744;2022-07-29T15:02:51;26.10;1.00
21625;DHT22;10974;51.034;3.744;2022-07-29T15:05:17;26.00;1.00
21625;DHT22;10974;51.034;3.744;2022-07-29T15:07:43;26.10;1.00
21625;DHT22;10974;51.034;3.744;2022-07-29T15:10:09;26.10;1.00
21625;DHT22;10974;51.034;3.744;2022-07-29T15:12:34;26.10;99.90
21625;DHT22;10974;51.034;3.744;2022-07-29T15:15:00;26.10;99.90
21625;DHT22;10974;51.034;3.744;2022-07-29T15:17:26;26.20;99.90
21625;DHT22;10974;51.034;3.744;2022-07-29T15:19:52;26.10;99.90
21625;DHT22;10974;51.034;3.744;2022-07-29T15:22:17;26.20;99.90
21625;DHT22;10974;51.034;3.744;2022-07-29T15:24:43;26.20;99.90
21625;DHT22;10974;51.034;3.744;2022-07-29T15:27:09;26.20;99.90
21625;DHT22;10974;51.034;3.744;2022-07-29T15:29:40;26.20;99.90
21625;DHT22;10974;51.034;3.744;2022-07-29T15:32:06;26.20;99.90
21625;DHT22;10974;51.034;3.744;2022-07-29T15:34:33;26.10;99.90
21625;DHT22;10974;51.034;3.744;2022-07-29T15:36:58;26.10;99.90
21625;DHT22;10974;51.034;3.744;2022-07-29T15:39:24;26.10;99.90
21625;DHT22;10974;51.034;3.744;2022-07-29T15:41:50;26.10;99.90
21625;DHT22;10974;51.034;3.744;2022-07-29T15:44:17;26.10;99.90
21625;DHT22;10974;51.034;3.744;2022-07-29T15:46:43;26.10;99.90
21625;DHT22;10974;51.034;3.744;2022-07-29T15:49:29;26.10;99.90
21625;DHT22;10974;51.034;3.744;2022-07-29T15:52:02;26.10;99.90
21625;DHT22;10974;51.034;3.744;2022-07-29T15:54:31;26.10;99.90
21625;DHT22;10974;51.034;3.744;2022-07-29T15:56:57;26.20;99.90
21625;DHT22;10974;51.034;3.744;2022-07-29T15:59:22;26.20;99.90
21625;DHT22;10974;51.034;3.744;2022-07-29T16:01:48;26.40;99.90
21625;DHT22;10974;51.034;3.744;2022-07-29T16:04:15;26.40;99.90
21625;DHT22;10974;51.034;3.744;2022-07-29T16:06:41;26.30;99.90
21625;DHT22;10974;51.034;3.744;2022-07-29T16:09:06;26.30;99.90
21625;DHT22;10974;51.034;3.744;2022-07-29T16:11:32;26.20;99.90
21625;DHT22;10974;51.034;3.744;2022-07-29T16:13:58;26.10;99.90
21625;DHT22;10974;51.034;3.744;2022-07-29T16:16:23;26.00;99.90
21625;DHT22;10974;51.034;3.744;2022-07-29T16:18:49;25.70;99.90
21625;DHT22;10974;51.034;3.744;2022-07-29T16:21:15;25.70;99.90
21625;DHT22;10974;51.034;3.744;2022-07-29T16:23:41;25.70;99.90
21625;DHT22;10974;51.034;3.744;2022-07-29T16:26:06;25.70;99.90